createdAt,value
2023-05-04T00:00:07.885Z,31.51
2023-05-04T00:00:18.559Z,31.51
2023-05-04T00:00:29.562Z,31.51
2023-05-04T00:00:40.550Z,31.51
2023-05-04T00:00:51.633Z,31.51
2023-05-04T00:01:03.585Z,31.51
2023-05-04T00:01:14.620Z,31.51
2023-05-04T00:01:25.599Z,31.51
2023-05-04T00:01:37.605Z,31.51
2023-05-04T00:01:48.601Z,31.51
2023-05-04T00:01:59.597Z,31.51
2023-05-04T00:02:10.637Z,31.51
2023-05-04T00:02:22.717Z,31.51
2023-05-04T00:02:34.731Z,31.51
2023-05-04T00:02:45.674Z,31.51
2023-05-04T00:02:57.632Z,31.51
2023-05-04T00:03:08.620Z,31.51
2023-05-04T00:03:19.657Z,31.51
2023-05-04T00:03:30.759Z,31.51
2023-05-04T00:03:41.793Z,31.51
2023-05-04T00:03:53.735Z,31.51
2023-05-04T00:04:05.790Z,31.51
2023-05-04T00:04:16.692Z,31.51
2023-05-04T00:04:27.642Z,31.51
2023-05-04T00:04:38.649Z,31.51
2023-05-04T00:04:49.698Z,31.51
2023-05-04T00:05:00.608Z,31.51
2023-05-04T00:05:12.600Z,31.51
2023-05-04T00:05:23.628Z,31.51
2023-05-04T00:05:35.583Z,31.51
2023-05-04T00:05:46.569Z,31.51
2023-05-04T00:05:57.585Z,31.51
2023-05-04T00:06:08.584Z,31.51
2023-05-04T00:06:19.570Z,31.51
2023-05-04T00:06:30.571Z,31.51
2023-05-04T00:06:41.559Z,31.40
2023-05-04T00:06:52.644Z,31.51
2023-05-04T00:07:04.602Z,31.51
2023-05-04T00:07:15.592Z,31.51
2023-05-04T00:07:26.570Z,31.51
2023-05-04T00:07:37.558Z,31.51
2023-05-04T00:07:48.669Z,31.40
2023-05-04T00:08:00.639Z,31.51
2023-05-04T00:08:12.606Z,31.51
2023-05-04T00:08:23.600Z,31.51
2023-05-04T00:08:34.565Z,31.51
2023-05-04T00:08:45.575Z,31.51
2023-05-04T00:08:56.572Z,31.51
2023-05-04T00:09:07.589Z,31.40
2023-05-04T00:09:18.609Z,31.40
2023-05-04T00:09:29.598Z,31.51
2023-05-04T00:09:40.601Z,31.40
2023-05-04T00:09:51.581Z,31.40
2023-05-04T00:10:02.868Z,31.51
2023-05-04T00:10:13.652Z,31.40
2023-05-04T00:10:25.621Z,31.40
2023-05-04T00:10:36.615Z,31.40
2023-05-04T00:10:47.607Z,31.40
2023-05-04T00:10:58.599Z,31.40
2023-05-04T00:11:09.618Z,31.40
2023-05-04T00:11:20.603Z,31.40
2023-05-04T00:11:31.620Z,31.40
2023-05-04T00:11:43.596Z,31.40
2023-05-04T00:11:54.605Z,31.40
2023-05-04T00:12:05.593Z,31.40
2023-05-04T00:12:16.579Z,31.40
2023-05-04T00:12:27.671Z,31.40
2023-05-04T00:12:38.636Z,31.40
2023-05-04T00:12:50.641Z,31.40
2023-05-04T00:13:02.684Z,31.40
2023-05-04T00:13:13.634Z,31.40
2023-05-04T00:13:25.628Z,31.40
2023-05-04T00:13:37.586Z,31.40
2023-05-04T00:13:48.610Z,31.40
2023-05-04T00:13:59.604Z,31.40
2023-05-04T00:14:10.620Z,31.40
2023-05-04T00:14:22.584Z,31.40
2023-05-04T00:14:33.572Z,31.40
2023-05-04T00:14:44.574Z,31.40
2023-05-04T00:14:55.676Z,31.40
2023-05-04T00:15:06.597Z,31.40
2023-05-04T00:15:17.583Z,31.40
2023-05-04T00:15:28.581Z,31.40
2023-05-04T00:15:39.588Z,31.40
2023-05-04T00:15:50.642Z,31.30
2023-05-04T00:16:01.678Z,31.40
2023-05-04T00:16:13.612Z,31.40
2023-05-04T00:16:25.638Z,31.30
2023-05-04T00:16:37.675Z,31.30
2023-05-04T00:16:49.662Z,31.30
2023-05-04T00:17:01.647Z,31.30
2023-05-04T00:17:13.587Z,31.30
2023-05-04T00:17:24.629Z,31.30
2023-05-04T00:17:36.614Z,31.30
2023-05-04T00:17:48.598Z,31.30
2023-05-04T00:18:00.650Z,31.30
2023-05-04T00:18:11.609Z,31.30
2023-05-04T00:18:22.612Z,31.30
2023-05-04T00:18:33.604Z,31.30
2023-05-04T00:18:44.612Z,31.30
2023-05-04T00:18:55.605Z,31.30
2023-05-04T00:19:06.595Z,31.30
2023-05-04T00:19:17.576Z,31.30
2023-05-04T00:19:28.565Z,31.30
2023-05-04T00:19:39.554Z,31.30
2023-05-04T00:19:50.649Z,31.30
2023-05-04T00:20:02.830Z,31.30
2023-05-04T00:20:14.610Z,31.30
2023-05-04T00:20:25.604Z,31.30
2023-05-04T00:20:36.592Z,31.30
2023-05-04T00:20:47.600Z,31.30
2023-05-04T00:20:58.589Z,31.30
2023-05-04T00:21:09.575Z,31.30
2023-05-04T00:21:20.573Z,31.30
2023-05-04T00:21:31.585Z,31.30
2023-05-04T00:21:42.577Z,31.30
2023-05-04T00:21:53.575Z,31.30
2023-05-04T00:22:04.589Z,31.30
2023-05-04T00:22:15.577Z,31.30
2023-05-04T00:22:26.589Z,31.30
2023-05-04T00:22:37.590Z,31.30
2023-05-04T00:22:48.593Z,31.30
2023-05-04T00:22:59.579Z,31.30
2023-05-04T00:23:10.589Z,31.30
2023-05-04T00:23:21.578Z,31.30
2023-05-04T00:23:32.565Z,31.30
2023-05-04T00:23:43.575Z,31.30
2023-05-04T00:23:54.551Z,31.30
2023-05-04T00:24:05.521Z,31.30
2023-05-04T00:24:16.602Z,31.30
2023-05-04T00:24:28.558Z,31.30
2023-05-04T00:24:39.538Z,31.30
2023-05-04T00:24:50.615Z,31.30
2023-05-04T00:25:02.551Z,31.30
2023-05-04T00:25:13.544Z,31.30
2023-05-04T00:25:24.550Z,31.30
2023-05-04T00:25:35.518Z,31.30
2023-05-04T00:25:46.594Z,31.30
2023-05-04T00:25:57.567Z,31.30
2023-05-04T00:26:08.581Z,31.30
2023-05-04T00:26:19.556Z,31.30
2023-05-04T00:26:30.527Z,31.30
2023-05-04T00:26:41.614Z,31.30
2023-05-04T00:26:53.561Z,31.30
2023-05-04T00:27:04.595Z,31.30
2023-05-04T00:27:15.545Z,31.30
2023-05-04T00:27:26.545Z,31.30
2023-05-04T00:27:37.548Z,31.30
2023-05-04T00:27:48.532Z,31.30
2023-05-04T00:27:59.614Z,31.20
2023-05-04T00:28:11.563Z,31.30
2023-05-04T00:28:22.565Z,31.30
2023-05-04T00:28:33.534Z,31.30
2023-05-04T00:28:44.605Z,31.30
2023-05-04T00:28:56.568Z,31.30
2023-05-04T00:29:07.561Z,31.30
2023-05-04T00:29:18.549Z,31.30
2023-05-04T00:29:29.542Z,31.20
2023-05-04T00:29:40.622Z,31.20
2023-05-04T00:29:52.550Z,31.20
2023-05-04T00:30:03.717Z,31.20
2023-05-04T00:30:14.596Z,31.20
2023-05-04T00:30:25.577Z,31.30
2023-05-04T00:30:36.567Z,31.20
2023-05-04T00:30:47.546Z,31.20
2023-05-04T00:30:58.616Z,31.20
2023-05-04T00:31:10.598Z,31.20
2023-05-04T00:31:21.602Z,31.20
2023-05-04T00:31:33.631Z,31.20
2023-05-04T00:31:44.603Z,31.20
2023-05-04T00:31:55.753Z,31.20
2023-05-04T00:32:06.671Z,31.20
2023-05-04T00:32:18.573Z,31.20
2023-05-04T00:32:29.648Z,31.20
2023-05-04T00:32:41.596Z,31.20
2023-05-04T00:32:52.691Z,31.20
2023-05-04T00:33:04.586Z,31.20
2023-05-04T00:33:16.562Z,31.20
2023-05-04T00:33:27.552Z,31.20
2023-05-04T00:33:38.522Z,31.20
2023-05-04T00:33:49.613Z,31.20
2023-05-04T00:34:00.588Z,31.20
2023-05-04T00:34:11.573Z,31.20
2023-05-04T00:34:22.535Z,31.20
2023-05-04T00:34:33.546Z,31.20
2023-05-04T00:34:44.534Z,31.20
2023-05-04T00:34:55.523Z,31.20
2023-05-04T00:35:06.595Z,31.20
2023-05-04T00:35:17.580Z,31.20
2023-05-04T00:35:28.570Z,31.20
2023-05-04T00:35:40.564Z,31.20
2023-05-04T00:35:51.569Z,31.20
2023-05-04T00:36:02.531Z,31.20
2023-05-04T00:36:13.622Z,31.20
2023-05-04T00:36:25.559Z,31.20
2023-05-04T00:36:36.541Z,31.20
2023-05-04T00:36:47.527Z,31.20
2023-05-04T00:36:58.636Z,31.20
2023-05-04T00:37:10.570Z,31.20
2023-05-04T00:37:21.581Z,31.20
2023-05-04T00:37:32.560Z,31.20
2023-05-04T00:37:43.520Z,31.20
2023-05-04T00:37:54.614Z,31.20
2023-05-04T00:38:06.558Z,31.20
2023-05-04T00:38:17.545Z,31.20
2023-05-04T00:38:28.534Z,31.20
2023-05-04T00:38:39.612Z,31.20
2023-05-04T00:38:51.551Z,31.20
2023-05-04T00:39:02.510Z,31.20
2023-05-04T00:39:13.620Z,31.20
2023-05-04T00:39:25.572Z,31.20
2023-05-04T00:39:36.556Z,31.20
2023-05-04T00:39:47.543Z,31.20
2023-05-04T00:39:58.533Z,31.20
2023-05-04T00:40:09.618Z,31.20
2023-05-04T00:40:21.533Z,31.20
2023-05-04T00:40:32.539Z,31.20
2023-05-04T00:40:43.605Z,31.20
2023-05-04T00:40:55.548Z,31.20
2023-05-04T00:41:06.543Z,31.20
2023-05-04T00:41:17.544Z,31.20
2023-05-04T00:41:28.618Z,31.20
2023-05-04T00:41:40.576Z,31.20
2023-05-04T00:41:51.575Z,31.10
2023-05-04T00:42:03.551Z,31.20
2023-05-04T00:42:14.544Z,31.20
2023-05-04T00:42:25.522Z,31.20
2023-05-04T00:42:36.610Z,31.10
2023-05-04T00:42:48.558Z,31.20
2023-05-04T00:42:59.532Z,31.20
2023-05-04T00:43:10.613Z,31.20
2023-05-04T00:43:22.556Z,31.20
2023-05-04T00:43:33.521Z,31.20
2023-05-04T00:43:44.618Z,31.10
2023-05-04T00:43:56.568Z,31.10
2023-05-04T00:44:07.566Z,31.10
2023-05-04T00:44:18.548Z,31.10
2023-05-04T00:44:29.528Z,31.10
2023-05-04T00:44:40.602Z,31.10
2023-05-04T00:44:52.560Z,31.10
2023-05-04T00:45:03.542Z,31.10
2023-05-04T00:45:14.535Z,31.10
2023-05-04T00:45:25.611Z,31.10
2023-05-04T00:45:37.581Z,31.10
2023-05-04T00:45:48.556Z,31.10
2023-05-04T00:45:59.537Z,31.10
2023-05-04T00:46:11.608Z,31.10
2023-05-04T00:46:22.751Z,31.10
2023-05-04T00:46:33.638Z,31.10
2023-05-04T00:46:45.768Z,31.10
2023-05-04T00:46:56.615Z,31.10
2023-05-04T00:47:08.605Z,31.10
2023-05-04T00:47:20.588Z,31.10
2023-05-04T00:47:31.597Z,31.10
2023-05-04T00:47:43.579Z,31.10
2023-05-04T00:47:54.605Z,31.10
2023-05-04T00:48:05.584Z,31.10
2023-05-04T00:48:16.585Z,31.10
2023-05-04T00:48:27.569Z,31.10
2023-05-04T00:48:38.564Z,31.10
2023-05-04T00:48:49.578Z,31.10
2023-05-04T00:49:00.562Z,31.10
2023-05-04T00:49:11.549Z,31.10
2023-05-04T00:49:22.509Z,31.10
2023-05-04T00:49:33.630Z,31.10
2023-05-04T00:49:45.571Z,31.10
2023-05-04T00:49:56.554Z,31.10
2023-05-04T00:50:07.702Z,31.10
2023-05-04T00:50:18.584Z,31.10
2023-05-04T00:50:29.589Z,31.10
2023-05-04T00:50:40.565Z,31.10
2023-05-04T00:50:52.552Z,31.10
2023-05-04T00:51:03.527Z,31.10
2023-05-04T00:51:14.631Z,31.10
2023-05-04T00:51:26.589Z,31.10
2023-05-04T00:51:37.569Z,31.10
2023-05-04T00:51:48.545Z,31.10
2023-05-04T00:51:59.553Z,31.10
2023-05-04T00:52:10.587Z,31.10
2023-05-04T00:52:21.615Z,31.10
2023-05-04T00:52:32.591Z,31.10
2023-05-04T00:52:43.566Z,31.10
2023-05-04T00:52:54.575Z,31.10
2023-05-04T00:53:05.559Z,31.10
2023-05-04T00:53:16.560Z,31.10
2023-05-04T00:53:27.556Z,31.00
2023-05-04T00:53:38.542Z,31.10
2023-05-04T00:53:49.528Z,31.10
2023-05-04T00:54:00.611Z,31.10
2023-05-04T00:54:12.553Z,31.10
2023-05-04T00:54:23.525Z,31.00
2023-05-04T00:54:34.611Z,31.00
2023-05-04T00:54:46.607Z,31.10
2023-05-04T00:54:58.577Z,31.10
2023-05-04T00:55:09.562Z,31.10
2023-05-04T00:55:20.574Z,31.10
2023-05-04T00:55:31.547Z,31.10
2023-05-04T00:55:42.559Z,31.10
2023-05-04T00:55:53.544Z,31.10
2023-05-04T00:56:04.626Z,31.00
2023-05-04T00:56:16.619Z,31.00
2023-05-04T00:56:28.574Z,31.00
2023-05-04T00:56:39.546Z,31.00
2023-05-04T00:56:50.645Z,31.00
2023-05-04T00:57:02.606Z,31.00
2023-05-04T00:57:13.581Z,31.00
2023-05-04T00:57:24.579Z,31.00
2023-05-04T00:57:35.553Z,31.00
2023-05-04T00:57:46.533Z,31.00
2023-05-04T00:57:57.618Z,31.00
2023-05-04T00:58:09.550Z,31.00
2023-05-04T00:58:20.530Z,31.00
2023-05-04T00:58:31.533Z,31.00
2023-05-04T00:58:42.612Z,31.00
2023-05-04T00:58:53.592Z,31.00
2023-05-04T00:59:04.586Z,31.00
2023-05-04T00:59:15.557Z,31.00
2023-05-04T00:59:26.532Z,31.00
2023-05-04T00:59:37.621Z,31.00
2023-05-04T00:59:49.559Z,31.00
2023-05-04T01:00:00.540Z,31.00
2023-05-04T01:00:11.529Z,31.00
2023-05-04T01:00:22.616Z,31.00
2023-05-04T01:00:34.558Z,31.00
2023-05-04T01:00:45.584Z,31.00
2023-05-04T01:00:56.598Z,31.00
2023-05-04T01:01:07.678Z,31.00
2023-05-04T01:01:18.590Z,31.00
2023-05-04T01:01:30.675Z,31.00
2023-05-04T01:01:41.571Z,31.00
2023-05-04T01:01:52.588Z,31.00
2023-05-04T01:02:03.576Z,31.00
2023-05-04T01:02:14.544Z,31.00
2023-05-04T01:02:25.572Z,31.00
2023-05-04T01:02:36.588Z,31.00
2023-05-04T01:02:48.584Z,31.00
2023-05-04T01:03:00.668Z,31.00
2023-05-04T01:03:12.686Z,31.00
2023-05-04T01:03:23.633Z,31.00
2023-05-04T01:03:34.556Z,31.00
2023-05-04T01:03:45.582Z,31.00
2023-05-04T01:03:56.604Z,31.00
2023-05-04T01:04:08.722Z,31.00
2023-05-04T01:04:19.573Z,31.00
2023-05-04T01:04:30.552Z,31.00
2023-05-04T01:04:41.531Z,31.00
2023-05-04T01:04:52.597Z,30.90
2023-05-04T01:05:04.560Z,31.00
2023-05-04T01:05:15.529Z,30.90
2023-05-04T01:05:26.545Z,30.90
2023-05-04T01:05:37.564Z,30.90
2023-05-04T01:05:48.536Z,30.90
2023-05-04T01:05:59.620Z,31.00
2023-05-04T01:06:11.594Z,31.00
2023-05-04T01:06:22.545Z,31.00
2023-05-04T01:06:33.534Z,31.00
2023-05-04T01:06:44.625Z,31.00
2023-05-04T01:06:56.557Z,31.00
2023-05-04T01:07:07.534Z,31.00
2023-05-04T01:07:18.625Z,31.00
2023-05-04T01:07:30.577Z,31.00
2023-05-04T01:07:41.567Z,31.00
2023-05-04T01:07:52.543Z,31.00
2023-05-04T01:08:03.614Z,31.00
2023-05-04T01:08:15.564Z,31.00
2023-05-04T01:08:26.564Z,31.00
2023-05-04T01:08:37.527Z,31.00
2023-05-04T01:08:48.625Z,30.90
2023-05-04T01:09:00.565Z,31.00
2023-05-04T01:09:11.554Z,30.90
2023-05-04T01:09:22.552Z,30.90
2023-05-04T01:09:33.627Z,30.90
2023-05-04T01:09:45.567Z,30.90
2023-05-04T01:09:56.583Z,30.90
2023-05-04T01:10:07.740Z,30.90
2023-05-04T01:10:18.534Z,30.90
2023-05-04T01:10:29.624Z,30.90
2023-05-04T01:10:41.581Z,30.90
2023-05-04T01:10:52.562Z,30.90
2023-05-04T01:11:03.559Z,30.90
2023-05-04T01:11:14.538Z,30.90
2023-05-04T01:11:25.623Z,30.90
2023-05-04T01:11:37.536Z,30.90
2023-05-04T01:11:48.637Z,30.90
2023-05-04T01:12:00.589Z,30.90
2023-05-04T01:12:11.570Z,30.90
2023-05-04T01:12:22.549Z,30.90
2023-05-04T01:12:33.551Z,30.90
2023-05-04T01:12:44.618Z,30.90
2023-05-04T01:12:55.573Z,30.90
2023-05-04T01:13:06.650Z,30.90
2023-05-04T01:13:17.648Z,30.90
2023-05-04T01:13:28.570Z,30.90
2023-05-04T01:13:39.529Z,30.90
2023-05-04T01:13:50.625Z,30.90
2023-05-04T01:14:02.586Z,30.90
2023-05-04T01:14:14.559Z,30.90
2023-05-04T01:14:25.559Z,30.90
2023-05-04T01:14:36.539Z,30.90
2023-05-04T01:14:47.538Z,30.90
2023-05-04T01:14:58.613Z,30.90
2023-05-04T01:15:10.554Z,30.90
2023-05-04T01:15:21.511Z,30.90
2023-05-04T01:15:32.589Z,30.90
2023-05-04T01:15:43.575Z,30.80
2023-05-04T01:15:54.562Z,30.90
2023-05-04T01:16:05.529Z,30.80
2023-05-04T01:16:16.651Z,30.90
2023-05-04T01:16:28.666Z,30.80
2023-05-04T01:16:40.601Z,30.90
2023-05-04T01:16:52.591Z,30.90
2023-05-04T01:17:04.689Z,30.80
2023-05-04T01:17:16.563Z,30.90
2023-05-04T01:17:27.573Z,30.90
2023-05-04T01:17:38.648Z,30.80
2023-05-04T01:17:50.602Z,30.80
2023-05-04T01:18:02.639Z,30.80
2023-05-04T01:18:14.639Z,30.80
2023-05-04T01:18:26.587Z,30.80
2023-05-04T01:18:37.564Z,30.90
2023-05-04T01:18:48.546Z,30.80
2023-05-04T01:18:59.623Z,30.80
2023-05-04T01:19:11.564Z,30.80
2023-05-04T01:19:22.539Z,30.80
2023-05-04T01:19:33.640Z,30.80
2023-05-04T01:19:45.589Z,30.80
2023-05-04T01:19:56.563Z,30.82
2023-05-04T01:20:07.662Z,30.80
2023-05-04T01:20:18.596Z,30.80
2023-05-04T01:20:29.586Z,30.80
2023-05-04T01:20:40.568Z,30.80
2023-05-04T01:20:51.577Z,30.80
2023-05-04T01:21:02.554Z,30.82
2023-05-04T01:21:13.539Z,30.80
2023-05-04T01:21:24.615Z,30.80
2023-05-04T01:21:36.567Z,30.80
2023-05-04T01:21:47.541Z,30.80
2023-05-04T01:21:58.619Z,30.80
2023-05-04T01:22:10.552Z,30.80
2023-05-04T01:22:21.537Z,30.80
2023-05-04T01:22:32.532Z,30.80
2023-05-04T01:22:43.610Z,30.80
2023-05-04T01:22:54.584Z,30.80
2023-05-04T01:23:05.581Z,30.80
2023-05-04T01:23:16.544Z,30.80
2023-05-04T01:23:27.624Z,30.80
2023-05-04T01:23:39.555Z,30.80
2023-05-04T01:23:50.535Z,30.80
2023-05-04T01:24:01.631Z,30.82
2023-05-04T01:24:13.570Z,30.80
2023-05-04T01:24:24.528Z,30.82
2023-05-04T01:24:35.616Z,30.80
2023-05-04T01:24:46.589Z,30.80
2023-05-04T01:24:57.583Z,30.80
2023-05-04T01:25:08.556Z,30.82
2023-05-04T01:25:19.532Z,30.82
2023-05-04T01:25:30.613Z,30.80
2023-05-04T01:25:41.586Z,30.71
2023-05-04T01:25:52.567Z,30.70
2023-05-04T01:26:03.561Z,30.71
2023-05-04T01:26:14.624Z,30.71
2023-05-04T01:26:26.569Z,30.80
2023-05-04T01:26:37.546Z,30.71
2023-05-04T01:26:48.534Z,30.71
2023-05-04T01:26:59.620Z,30.71
2023-05-04T01:27:11.592Z,30.71
2023-05-04T01:27:22.568Z,30.71
2023-05-04T01:27:33.547Z,30.71
2023-05-04T01:27:44.625Z,30.70
2023-05-04T01:27:56.575Z,30.71
2023-05-04T01:28:07.547Z,30.71
2023-05-04T01:28:18.580Z,30.71
2023-05-04T01:28:29.565Z,30.71
2023-05-04T01:28:40.528Z,30.71
2023-05-04T01:28:51.609Z,30.71
2023-05-04T01:29:03.567Z,30.71
2023-05-04T01:29:14.554Z,30.71
2023-05-04T01:29:26.555Z,30.82
2023-05-04T01:29:37.535Z,30.71
2023-05-04T01:29:48.542Z,30.71
2023-05-04T01:29:59.513Z,30.71
2023-05-04T01:30:10.608Z,30.71
2023-05-04T01:30:21.576Z,30.71
2023-05-04T01:30:32.566Z,30.71
2023-05-04T01:30:43.620Z,30.71
2023-05-04T01:30:54.681Z,30.71
2023-05-04T01:31:06.574Z,30.71
2023-05-04T01:31:17.582Z,30.71
2023-05-04T01:31:28.673Z,30.71
2023-05-04T01:31:40.585Z,30.71
2023-05-04T01:31:51.562Z,30.71
2023-05-04T01:32:02.609Z,30.71
2023-05-04T01:32:14.692Z,30.71
2023-05-04T01:32:25.621Z,30.71
2023-05-04T01:32:37.703Z,30.71
2023-05-04T01:32:48.584Z,30.71
2023-05-04T01:32:59.649Z,30.71
2023-05-04T01:33:11.659Z,30.71
2023-05-04T01:33:22.589Z,30.71
2023-05-04T01:33:33.578Z,30.71
2023-05-04T01:33:44.569Z,30.71
2023-05-04T01:33:55.582Z,30.71
2023-05-04T01:34:06.571Z,30.71
2023-05-04T01:34:18.602Z,30.71
2023-05-04T01:34:29.570Z,30.71
2023-05-04T01:34:40.556Z,30.71
2023-05-04T01:34:51.526Z,30.71
2023-05-04T01:35:02.623Z,30.71
2023-05-04T01:35:14.588Z,30.71
2023-05-04T01:35:25.582Z,30.71
2023-05-04T01:35:36.572Z,30.71
2023-05-04T01:35:47.548Z,30.71
2023-05-04T01:35:58.528Z,30.71
2023-05-04T01:36:09.606Z,30.71
2023-05-04T01:36:20.577Z,30.71
2023-05-04T01:36:31.549Z,30.71
2023-05-04T01:36:42.527Z,30.71
2023-05-04T01:36:53.593Z,30.71
2023-05-04T01:37:04.571Z,30.71
2023-05-04T01:37:15.582Z,30.71
2023-05-04T01:37:26.564Z,30.71
2023-05-04T01:37:37.552Z,30.71
2023-05-04T01:37:48.550Z,30.71
2023-05-04T01:37:59.540Z,30.71
2023-05-04T01:38:10.626Z,30.71
2023-05-04T01:38:22.591Z,30.71
2023-05-04T01:38:33.567Z,30.71
2023-05-04T01:38:44.549Z,30.71
2023-05-04T01:38:55.605Z,30.71
2023-05-04T01:39:07.563Z,30.71
2023-05-04T01:39:18.558Z,30.71
2023-05-04T01:39:29.543Z,30.71
2023-05-04T01:39:40.622Z,30.71
2023-05-04T01:39:52.604Z,30.71
2023-05-04T01:40:04.851Z,30.62
2023-05-04T01:40:15.542Z,30.71
2023-05-04T01:40:26.528Z,30.62
2023-05-04T01:40:37.621Z,30.62
2023-05-04T01:40:49.582Z,30.62
2023-05-04T01:41:01.565Z,30.62
2023-05-04T01:41:12.543Z,30.62
2023-05-04T01:41:23.539Z,30.62
2023-05-04T01:41:34.639Z,30.62
2023-05-04T01:41:46.595Z,30.62
2023-05-04T01:41:57.591Z,30.62
2023-05-04T01:42:08.584Z,30.62
2023-05-04T01:42:19.576Z,30.71
2023-05-04T01:42:30.548Z,30.62
2023-05-04T01:42:41.533Z,30.62
2023-05-04T01:42:52.532Z,30.62
2023-05-04T01:43:03.621Z,30.62
2023-05-04T01:43:15.564Z,30.62
2023-05-04T01:43:26.578Z,30.62
2023-05-04T01:43:37.574Z,30.62
2023-05-04T01:43:48.551Z,30.62
2023-05-04T01:43:59.548Z,30.62
2023-05-04T01:44:10.619Z,30.62
2023-05-04T01:44:22.552Z,30.62
2023-05-04T01:44:33.540Z,30.62
2023-05-04T01:44:44.540Z,30.62
2023-05-04T01:44:55.620Z,30.62
2023-05-04T01:45:07.588Z,30.62
2023-05-04T01:45:18.563Z,30.62
2023-05-04T01:45:29.552Z,30.62
2023-05-04T01:45:40.532Z,30.62
2023-05-04T01:45:51.644Z,30.62
2023-05-04T01:46:03.623Z,30.62
2023-05-04T01:46:14.594Z,30.62
2023-05-04T01:46:26.603Z,30.62
2023-05-04T01:46:38.591Z,30.62
2023-05-04T01:46:50.576Z,30.62
2023-05-04T01:47:01.560Z,30.62
2023-05-04T01:47:12.550Z,30.62
2023-05-04T01:47:23.648Z,30.62
2023-05-04T01:47:34.673Z,30.62
2023-05-04T01:47:46.565Z,30.62
2023-05-04T01:47:57.613Z,30.51
2023-05-04T01:48:08.588Z,30.62
2023-05-04T01:48:19.530Z,30.51
2023-05-04T01:48:30.624Z,30.62
2023-05-04T01:48:42.571Z,30.62
2023-05-04T01:48:53.551Z,30.51
2023-05-04T01:49:04.536Z,30.62
2023-05-04T01:49:15.610Z,30.51
2023-05-04T01:49:27.547Z,30.62
2023-05-04T01:49:38.557Z,30.62
2023-05-04T01:49:49.564Z,30.62
2023-05-04T01:50:00.535Z,30.62
2023-05-04T01:50:11.556Z,30.62
2023-05-04T01:50:22.533Z,30.51
2023-05-04T01:50:33.523Z,30.51
2023-05-04T01:50:44.602Z,30.51
2023-05-04T01:50:55.583Z,30.51
2023-05-04T01:51:06.584Z,30.51
2023-05-04T01:51:17.577Z,30.51
2023-05-04T01:51:28.607Z,30.51
2023-05-04T01:51:40.556Z,30.51
2023-05-04T01:51:51.538Z,30.51
2023-05-04T01:52:02.614Z,30.51
2023-05-04T01:52:14.555Z,30.51
2023-05-04T01:52:25.553Z,30.51
2023-05-04T01:52:36.547Z,30.51
2023-05-04T01:52:47.535Z,30.51
2023-05-04T01:52:58.622Z,30.51
2023-05-04T01:53:10.566Z,30.51
2023-05-04T01:53:21.537Z,30.51
2023-05-04T01:53:32.522Z,30.51
2023-05-04T01:53:43.620Z,30.51
2023-05-04T01:53:55.566Z,30.51
2023-05-04T01:54:06.545Z,30.51
2023-05-04T01:54:17.534Z,30.51
2023-05-04T01:54:28.531Z,30.51
2023-05-04T01:54:39.522Z,30.51
2023-05-04T01:54:50.605Z,30.51
2023-05-04T01:55:01.580Z,30.51
2023-05-04T01:55:13.589Z,30.51
2023-05-04T01:55:24.574Z,30.51
2023-05-04T01:55:35.580Z,30.51
2023-05-04T01:55:46.549Z,30.51
2023-05-04T01:55:57.553Z,30.51
2023-05-04T01:56:08.523Z,30.51
2023-05-04T01:56:19.538Z,30.51
2023-05-04T01:56:30.528Z,30.51
2023-05-04T01:56:41.612Z,30.51
2023-05-04T01:56:53.548Z,30.51
2023-05-04T01:57:04.538Z,30.51
2023-05-04T01:57:15.527Z,30.51
2023-05-04T01:57:26.618Z,30.51
2023-05-04T01:57:38.562Z,30.51
2023-05-04T01:57:49.549Z,30.51
2023-05-04T01:58:00.530Z,30.51
2023-05-04T01:58:11.595Z,30.51
2023-05-04T01:58:23.612Z,30.51
2023-05-04T01:58:35.558Z,30.51
2023-05-04T01:58:46.572Z,30.51
2023-05-04T01:58:58.567Z,30.51
2023-05-04T01:59:09.527Z,30.51
2023-05-04T01:59:20.614Z,30.51
2023-05-04T01:59:32.578Z,30.51
2023-05-04T01:59:43.537Z,30.51
2023-05-04T01:59:54.516Z,30.51
2023-05-04T02:00:06.011Z,30.51
2023-05-04T02:00:17.590Z,30.51
2023-05-04T02:00:29.552Z,30.51
2023-05-04T02:00:40.531Z,30.51
2023-05-04T02:00:51.526Z,30.51
2023-05-04T02:01:02.597Z,30.51
2023-05-04T02:01:14.572Z,30.51
2023-05-04T02:01:25.571Z,30.51
2023-05-04T02:01:37.584Z,30.51
2023-05-04T02:01:49.625Z,30.51
2023-05-04T02:02:00.585Z,30.51
2023-05-04T02:02:11.584Z,30.51
2023-05-04T02:02:22.583Z,30.51
2023-05-04T02:02:33.638Z,30.51
2023-05-04T02:02:45.646Z,30.51
2023-05-04T02:02:56.610Z,30.51
2023-05-04T02:03:07.677Z,30.51
2023-05-04T02:03:19.640Z,30.51
2023-05-04T02:03:31.651Z,30.41
2023-05-04T02:03:42.622Z,30.51
2023-05-04T02:03:53.641Z,30.51
2023-05-04T02:04:05.720Z,30.51
2023-05-04T02:04:17.560Z,30.51
2023-05-04T02:04:28.555Z,30.51
2023-05-04T02:04:39.537Z,30.41
2023-05-04T02:04:50.515Z,30.41
2023-05-04T02:05:01.615Z,30.41
2023-05-04T02:05:13.571Z,30.41
2023-05-04T02:05:24.534Z,30.41
2023-05-04T02:05:35.518Z,30.41
2023-05-04T02:05:46.589Z,30.41
2023-05-04T02:05:57.568Z,30.41
2023-05-04T02:06:08.562Z,30.41
2023-05-04T02:06:19.539Z,30.41
2023-05-04T02:06:30.676Z,30.41
2023-05-04T02:06:42.532Z,30.41
2023-05-04T02:06:53.612Z,30.41
2023-05-04T02:07:05.558Z,30.41
2023-05-04T02:07:16.550Z,30.41
2023-05-04T02:07:27.534Z,30.51
2023-05-04T02:07:38.520Z,30.41
2023-05-04T02:07:49.596Z,30.41
2023-05-04T02:08:00.574Z,30.41
2023-05-04T02:08:11.559Z,30.41
2023-05-04T02:08:22.556Z,30.41
2023-05-04T02:08:33.530Z,30.41
2023-05-04T02:08:44.601Z,30.41
2023-05-04T02:08:56.547Z,30.41
2023-05-04T02:09:07.524Z,30.41
2023-05-04T02:09:18.600Z,30.41
2023-05-04T02:09:29.567Z,30.41
2023-05-04T02:09:40.555Z,30.41
2023-05-04T02:09:51.533Z,30.41
2023-05-04T02:10:02.980Z,30.41
2023-05-04T02:10:14.589Z,30.41
2023-05-04T02:10:25.572Z,30.41
2023-05-04T02:10:36.553Z,30.41
2023-05-04T02:10:47.528Z,30.41
2023-05-04T02:10:58.521Z,30.41
2023-05-04T02:11:09.593Z,30.41
2023-05-04T02:11:20.560Z,30.41
2023-05-04T02:11:31.574Z,30.41
2023-05-04T02:11:42.558Z,30.41
2023-05-04T02:11:53.557Z,30.41
2023-05-04T02:12:04.542Z,30.41
2023-05-04T02:12:15.545Z,30.41
2023-05-04T02:12:26.538Z,30.41
2023-05-04T02:12:37.541Z,30.41
2023-05-04T02:12:48.588Z,30.41
2023-05-04T02:13:00.596Z,30.41
2023-05-04T02:13:12.717Z,30.41
2023-05-04T02:13:24.604Z,30.41
2023-05-04T02:13:36.569Z,30.41
2023-05-04T02:13:47.574Z,30.41
2023-05-04T02:13:58.579Z,30.41
2023-05-04T02:14:09.547Z,30.41
2023-05-04T02:14:20.517Z,30.41
2023-05-04T02:14:31.602Z,30.41
2023-05-04T02:14:42.580Z,30.41
2023-05-04T02:14:53.557Z,30.41
2023-05-04T02:15:04.550Z,30.41
2023-05-04T02:15:15.529Z,30.41
2023-05-04T02:15:26.605Z,30.41
2023-05-04T02:15:38.556Z,30.41
2023-05-04T02:15:49.579Z,30.41
2023-05-04T02:16:00.576Z,30.41
2023-05-04T02:16:11.584Z,30.41
2023-05-04T02:16:22.633Z,30.41
2023-05-04T02:16:34.622Z,30.41
2023-05-04T02:16:46.569Z,30.41
2023-05-04T02:16:58.556Z,30.41
2023-05-04T02:17:09.545Z,30.41
2023-05-04T02:17:20.519Z,30.41
2023-05-04T02:17:31.622Z,30.41
2023-05-04T02:17:43.671Z,30.41
2023-05-04T02:17:54.595Z,30.31
2023-05-04T02:18:06.632Z,30.41
2023-05-04T02:18:18.601Z,30.31
2023-05-04T02:18:29.575Z,30.31
2023-05-04T02:18:40.561Z,30.31
2023-05-04T02:18:51.519Z,30.31
2023-05-04T02:19:02.531Z,30.31
2023-05-04T02:19:13.610Z,30.31
2023-05-04T02:19:25.567Z,30.31
2023-05-04T02:19:36.558Z,30.31
2023-05-04T02:19:47.552Z,30.41
2023-05-04T02:19:58.542Z,30.31
2023-05-04T02:20:09.535Z,30.31
2023-05-04T02:20:20.601Z,30.41
2023-05-04T02:20:32.551Z,30.31
2023-05-04T02:20:43.616Z,30.31
2023-05-04T02:20:55.562Z,30.31
2023-05-04T02:21:06.553Z,30.31
2023-05-04T02:21:17.531Z,30.31
2023-05-04T02:21:28.618Z,30.31
2023-05-04T02:21:40.568Z,30.41
2023-05-04T02:21:51.553Z,30.31
2023-05-04T02:22:02.555Z,30.31
2023-05-04T02:22:13.546Z,30.31
2023-05-04T02:22:24.542Z,30.31
2023-05-04T02:22:35.620Z,30.31
2023-05-04T02:22:47.556Z,30.31
2023-05-04T02:22:58.554Z,30.31
2023-05-04T02:23:09.538Z,30.31
2023-05-04T02:23:20.569Z,30.31
2023-05-04T02:23:31.527Z,30.31
2023-05-04T02:23:42.527Z,30.31
2023-05-04T02:23:53.603Z,30.31
2023-05-04T02:24:04.581Z,30.31
2023-05-04T02:24:15.581Z,30.31
2023-05-04T02:24:26.556Z,30.31
2023-05-04T02:24:37.571Z,30.31